イエローナイフ の空港の天気 - METARとTAF

イエローナイフ空港 ( CYZF / YZF ) - カナダ ノースウエスト準州イエローナイフ
飛行場実況気象(Metar)
観測時間05/28 03:00 MDT (05/28 09:00 UTC)
風向・風速北北西 4m/s
視程10km以上
天気現象
少しの雲 雲底高度 1830m
少しの雲 雲底高度 7320m
気温8℃
湿度81%
気圧1005.7hPa
METARCYZF 280900Z 33008KT 15SM FEW060 FEW240 08/05 A2967 RMK SC1CI1 CI TR SLP057
過去の天気等 Google飛行場航空写真 Wunderground天気予報

過去48時間のMETAR

飛行場予報(TAF)
発表時間: 5/27 23:40 MDT (5/28 05:40 UTC)
予報対象時間: 28日0時 MDT ~ 29日0時 MDT
風向・風速不定 2m/s
視程10km以上
全天の4割程度の雲 雲底高度 1830m
28日1時 MDT ~ 28日3時 MDT に徐々に
風向・風速北 3m/s
28日9時 MDT から
風向・風速北 6m/s
視程10km以上
全天の4割程度の雲 雲底高度 1520m
28日9時 MDT ~ 28日18時 MDT に一時的に
視程10km以上
天気現象弱いしゅう雨
全天の8割程度の雲 雲底高度 1520m
28日18時 MDT から
風向・風速北 6m/s
視程10km以上
全天の4割程度の雲 雲底高度 2440m
TAF CYZF 280540Z 2806/2906 VRB03KT P6SM SCT060
BECMG 2807/2809 36006KT
FM281500 36012KT P6SM SCT050
TEMPO 2815/2824 P6SM -SHRA BKN050
FM290000 01012KT P6SM SCT080 RMK NXT FCST BY 281200Z